Terminal Aerodrome Forecast
Issued by NWS Paducah, KY

Home | Current Version | Previous Version | Text Only | Print | Product List | Glossary On
Versions: 1 2 3 4 5 6 7 8 9 10 11 12 13 14 15 16 17 18 19 20 21 22 23 24 25 26 27 28
000
FTUS43 KPAH 181130
TAFPAH
TAF
KPAH 181130Z 1812/1912 03003KT 6SM -SHRA BR OVC035
      TEMPO 1812/1816 5SM SHRA BR BKN015
     FM181600 05006KT 6SM -SHRA BR VCTS OVC025CB PROB30 1821/1902
      4SM SHRA BR BKN025
     FM190200 VRB03KT P6SM BKN035 BKN150=

USA.gov is the U.S. government's official web portal to all federal, state and local government web resources and services.